Time;durP1;ratioP1;P1;durP2;ratioP2;P2;SDS_P1;SDS_P2;PMS_P1;PMS_P2;Temp;Humidity;BMP_temperature;BMP_pressure;BME280_temperature;BME280_humidity;BME280_pressure;Samples;Min_cycle;Max_cycle;Signal;HPM_P1;HPM_P2
2023/04/05 00:01:13;;;;;;;8.03;5.87;;;3.20;99.90;;;;;;4921892;29;20573;-51
2023/04/05 00:03:42;;;;;;;6.80;5.60;;;3.20;99.90;;;;;;4933652;29;20992;-53
2023/04/05 00:06:11;;;;;;;7.23;6.23;;;3.50;99.90;;;;;;4937047;29;20904;-53
2023/04/05 00:08:40;;;;;;;11.10;6.33;;;3.50;99.90;;;;;;4936852;29;20974;-53
2023/04/05 00:11:09;;;;;;;9.80;5.20;;;3.50;99.90;;;;;;4936586;29;20234;-54
2023/04/05 00:13:37;;;;;;;6.93;5.33;;;3.50;99.90;;;;;;4935123;29;20471;-54
2023/04/05 00:16:06;;;;;;;10.57;6.10;;;3.40;99.90;;;;;;4932687;29;20624;-53
2023/04/05 00:18:37;;;;;;;8.47;6.00;;;3.30;99.90;;;;;;4917422;29;21014;-54
2023/04/05 00:21:05;;;;;;;6.80;4.70;;;3.10;99.90;;;;;;4917460;29;20469;-54
2023/04/05 00:23:37;;;;;;;10.50;5.97;;;3.00;99.90;;;;;;4917619;29;20464;-53
2023/04/05 00:26:05;;;;;;;8.10;5.97;;;3.00;99.90;;;;;;4917128;29;20469;-52
2023/04/05 00:28:35;;;;;;;6.07;4.37;;;2.90;99.90;;;;;;4920655;29;20479;-52
2023/04/05 00:31:04;;;;;;;6.87;5.00;;;3.20;99.90;;;;;;4921347;29;21005;-52
2023/04/05 00:33:32;;;;;;;4.57;3.93;;;3.30;99.90;;;;;;4932073;29;20471;-52
2023/04/05 00:36:09;;;;;;;6.43;4.93;;;3.50;99.90;;;;;;4927231;29;20825;-53
2023/04/05 00:38:38;;;;;;;4.73;4.23;;;3.40;99.90;;;;;;4917282;29;20802;-54
2023/04/05 00:41:06;;;;;;;7.27;5.13;;;3.40;99.90;;;;;;4917373;29;20480;-53
2023/04/05 00:43:36;;;;;;;6.43;4.47;;;3.30;99.90;;;;;;4917471;29;20469;-51
2023/04/05 00:46:04;;;;;;;5.37;4.53;;;3.10;99.90;;;;;;4924807;29;20480;-54
2023/04/05 00:48:33;;;;;;;7.43;5.13;;;3.10;99.90;;;;;;4927535;29;20231;-53
2023/04/05 00:51:01;;;;;;;6.33;4.70;;;3.20;99.90;;;;;;4950642;29;20878;-51
2023/04/05 00:53:31;;;;;;;7.53;5.03;;;3.00;99.90;;;;;;4928967;29;20878;-52
2023/04/05 00:56:00;;;;;;;5.30;4.67;;;3.20;99.90;;;;;;4916832;29;20482;-54
2023/04/05 00:58:28;;;;;;;6.67;4.40;;;3.10;99.90;;;;;;4918190;29;20493;-52
2023/04/05 01:01:05;;;;;;;6.87;5.10;;;2.80;99.90;;;;;;4922006;29;20480;-59
2023/04/05 01:03:37;;;;;;;8.80;5.00;;;2.60;99.90;;;;;;4953868;23;20496;-55
2023/04/05 01:06:17;;;;;;;7.50;5.07;;;2.40;99.90;;;;;;4943761;29;20480;-55
2023/04/05 01:08:55;;;;;;;6.77;5.00;;;2.40;99.90;;;;;;4934323;29;20521;-54
2023/04/05 01:11:25;;;;;;;6.17;4.00;;;2.60;99.90;;;;;;4935691;29;20471;-54
2023/04/05 01:13:59;;;;;;;5.47;4.10;;;2.80;99.90;;;;;;4937736;29;20482;-53
2023/04/05 01:16:28;;;;;;;6.20;4.17;;;2.90;99.90;;;;;;4946452;28;20491;-52
2023/04/05 01:18:57;;;;;;;7.00;4.03;;;2.80;99.90;;;;;;4953782;29;20841;-54
2023/04/05 01:21:57;;;;;;;5.20;4.20;;;2.90;99.90;;;;;;4953387;29;20486;-54
2023/04/05 01:24:39;;;;;;;4.80;3.87;;;2.90;99.90;;;;;;4952608;29;20510;-53
2023/04/05 01:27:10;;;;;;;6.30;4.10;;;2.80;99.90;;;;;;4954612;29;20564;-53
2023/04/05 01:29:52;;;;;;;5.97;3.97;;;2.50;99.90;;;;;;4952981;29;20506;-55
2023/04/05 01:32:53;;;;;;;7.17;4.53;;;2.60;99.90;;;;;;4948353;28;20479;-53
2023/04/05 01:35:29;;;;;;;4.60;3.20;;;2.60;99.90;;;;;;4935426;29;20477;-55
2023/04/05 01:38:00;;;;;;;5.03;3.20;;;2.60;99.90;;;;;;4935532;29;20493;-54
2023/04/05 01:40:30;;;;;;;4.80;3.93;;;2.70;99.90;;;;;;4938012;29;20881;-55
2023/04/05 01:43:00;;;;;;;6.40;3.93;;;2.60;99.90;;;;;;4939369;29;20476;-56
2023/04/05 01:45:30;;;;;;;4.77;3.20;;;2.60;99.90;;;;;;4938970;29;20470;-54
2023/04/05 01:47:58;;;;;;;4.13;3.23;;;2.70;99.90;;;;;;4957767;29;20469;-55
2023/04/05 01:50:26;;;;;;;5.40;4.00;;;2.60;99.90;;;;;;4958164;29;20486;-54
2023/04/05 01:52:54;;;;;;;6.80;4.30;;;2.60;99.90;;;;;;4958294;29;20461;-56
2023/04/05 01:55:22;;;;;;;5.63;3.13;;;2.50;99.90;;;;;;4939389;29;20997;-54
2023/04/05 01:57:51;;;;;;;4.17;3.20;;;2.60;99.90;;;;;;4953599;29;20492;-54
2023/04/05 02:00:19;;;;;;;4.50;3.20;;;2.60;99.90;;;;;;4965158;28;20865;-55
2023/04/05 02:02:49;;;;;;;5.53;2.97;;;2.60;99.90;;;;;;4953141;28;20989;-54
2023/04/05 02:05:17;;;;;;;4.50;3.10;;;2.60;99.90;;;;;;4937641;29;21036;-55
2023/04/05 02:07:45;;;;;;;5.30;3.57;;;2.70;99.90;;;;;;4938720;29;20950;-55
2023/04/05 02:10:14;;;;;;;5.60;3.63;;;2.80;99.90;;;;;;4937196;29;20558;-55
2023/04/05 02:12:43;;;;;;;4.57;3.27;;;2.80;99.90;;;;;;4937373;29;21022;-54
2023/04/05 02:15:12;;;;;;;3.67;3.23;;;2.60;99.90;;;;;;4929478;29;20478;-55
2023/04/05 02:17:44;;;;;;;6.43;3.63;;;2.60;99.90;;;;;;4922262;29;20480;-54
2023/04/05 02:20:14;;;;;;;4.80;3.60;;;2.70;99.90;;;;;;4918416;29;20575;-53
2023/04/05 02:22:43;;;;;;;5.23;3.80;;;2.60;99.90;;;;;;4918233;29;20479;-55
2023/04/05 02:25:12;;;;;;;5.03;3.50;;;2.40;99.90;;;;;;4937309;29;20480;-55
2023/04/05 02:27:41;;;;;;;4.87;3.30;;;2.60;99.90;;;;;;4937366;29;20833;-55
2023/04/05 02:30:12;;;;;;;5.90;3.57;;;2.80;99.90;;;;;;4934087;29;20527;-55
2023/04/05 02:32:43;;;;;;;5.47;3.30;;;2.80;99.90;;;;;;4927241;29;20538;-55
2023/04/05 02:35:12;;;;;;;5.50;3.63;;;2.70;99.90;;;;;;4938397;29;20826;-53
2023/04/05 02:37:41;;;;;;;4.63;3.40;;;2.50;99.90;;;;;;4938352;29;20494;-55
2023/04/05 02:40:13;;;;;;;7.07;3.67;;;2.20;99.90;;;;;;4939545;29;20471;-54
2023/04/05 02:42:42;;;;;;;4.90;4.00;;;1.90;99.90;;;;;;4937587;29;20474;-54
2023/04/05 02:45:11;;;;;;;6.27;4.57;;;2.10;99.90;;;;;;4933791;29;20515;-54
2023/04/05 02:47:39;;;;;;;6.93;4.87;;;2.10;99.90;;;;;;4933622;29;20846;-55
2023/04/05 02:50:08;;;;;;;7.43;5.30;;;1.90;99.90;;;;;;4937647;29;20508;-55
2023/04/05 02:52:43;;;;;;;7.20;4.77;;;1.70;99.90;;;;;;4936426;29;20479;-55
2023/04/05 02:55:11;;;;;;;10.37;5.50;;;2.00;99.90;;;;;;4936761;29;20485;-54
2023/04/05 02:57:40;;;;;;;9.50;5.93;;;2.10;99.90;;;;;;4938059;29;20486;-55
2023/04/05 03:00:22;;;;;;;9.57;6.33;;;1.80;99.90;;;;;;4930365;29;20827;-55
2023/04/05 03:02:50;;;;;;;8.00;6.37;;;1.50;99.90;;;;;;4925128;29;20492;-53
2023/04/05 03:05:21;;;;;;;9.77;5.57;;;1.60;99.90;;;;;;4933437;29;20530;-55
2023/04/05 03:07:53;;;;;;;8.77;5.97;;;1.50;99.90;;;;;;4933438;29;20518;-54
2023/04/05 03:10:31;;;;;;;12.60;6.47;;;1.70;99.90;;;;;;4917420;29;20876;-54
2023/04/05 03:13:04;;;;;;;9.23;5.53;;;1.80;99.90;;;;;;4933367;29;20539;-55
2023/04/05 03:15:32;;;;;;;6.70;5.57;;;1.70;99.90;;;;;;4934241;29;20481;-54
2023/04/05 03:18:06;;;;;;;8.63;5.90;;;1.70;99.90;;;;;;4917589;29;20498;-55
2023/04/05 03:20:38;;;;;;;8.20;6.30;;;1.80;99.90;;;;;;4917203;29;20995;-55
2023/04/05 03:23:15;;;;;;;8.90;5.43;;;2.00;99.90;;;;;;4921373;29;20514;-55
2023/04/05 03:25:43;;;;;;;8.93;6.00;;;1.80;99.90;;;;;;4936094;29;20470;-55
2023/04/05 03:28:14;;;;;;;6.73;5.50;;;1.70;99.90;;;;;;4936161;29;20554;-55
2023/04/05 03:30:45;;;;;;;8.87;6.10;;;1.80;99.90;;;;;;4935147;29;20478;-54
2023/04/05 03:33:18;;;;;;;9.33;5.90;;;1.90;99.90;;;;;;4928062;29;20478;-55
2023/04/05 03:35:49;;;;;;;7.47;5.87;;;1.90;99.90;;;;;;4949953;29;20490;-55
2023/04/05 03:38:19;;;;;;;9.63;6.30;;;2.10;99.90;;;;;;4951899;29;20502;-55
2023/04/05 03:41:05;;;;;;;8.77;5.40;;;1.90;99.90;;;;;;4936014;29;20570;-53
2023/04/05 03:43:35;;;;;;;7.33;5.90;;;1.80;99.90;;;;;;4951676;29;20510;-53
2023/04/05 03:46:03;;;;;;;7.53;6.07;;;1.80;99.90;;;;;;4925918;29;20478;-55
2023/04/05 03:48:31;;;;;;;7.70;6.13;;;1.80;99.90;;;;;;4917950;29;20967;-55
2023/04/05 03:50:59;;;;;;;7.90;6.23;;;1.90;99.90;;;;;;4932599;29;20879;-55
2023/04/05 03:53:29;;;;;;;8.20;6.03;;;2.10;99.90;;;;;;4940453;29;20478;-56
2023/04/05 03:55:59;;;;;;;10.53;7.00;;;2.30;99.90;;;;;;4918008;29;20520;-54
2023/04/05 03:58:40;;;;;;;8.30;6.20;;;2.30;99.90;;;;;;4934848;29;20573;-55
2023/04/05 04:01:09;;;;;;;10.27;7.57;;;2.10;99.90;;;;;;4940595;28;20483;-55
2023/04/05 04:03:38;;;;;;;8.60;6.40;;;1.90;99.90;;;;;;4938366;29;20909;-55
2023/04/05 04:06:07;;;;;;;8.70;6.90;;;1.60;99.90;;;;;;4935836;29;20989;-55
2023/04/05 04:08:37;;;;;;;10.33;6.33;;;1.40;99.90;;;;;;4935031;29;20470;-55
2023/04/05 04:11:06;;;;;;;8.27;6.00;;;1.30;99.90;;;;;;4935419;29;20513;-54
2023/04/05 04:13:37;;;;;;;12.00;6.93;;;1.30;99.90;;;;;;4935141;29;20489;-54
2023/04/05 04:16:28;;;;;;;10.57;7.03;;;1.40;99.90;;;;;;4909944;29;20463;-55
2023/04/05 04:19:17;;;;;;;8.27;6.03;;;1.20;99.90;;;;;;4936180;29;21106;-53
2023/04/05 04:22:03;;;;;;;11.33;6.93;;;1.10;99.90;;;;;;4936743;29;21121;-55
2023/04/05 04:24:54;;;;;;;8.43;6.07;;;1.30;99.90;;;;;;4925598;29;20474;-54
2023/04/05 04:27:53;;;;;;;9.83;6.73;;;1.30;99.90;;;;;;4934980;29;20477;-54
2023/04/05 04:30:43;;;;;;;8.53;5.10;;;1.10;99.90;;;;;;4925651;29;20476;-54
2023/04/05 04:33:34;;;;;;;9.17;5.53;;;1.30;99.90;;;;;;4947007;29;20838;-55
2023/04/05 04:36:38;;;;;;;7.70;4.90;;;1.20;99.90;;;;;;4950771;29;20969;-56
2023/04/05 04:39:25;;;;;;;6.30;4.47;;;1.20;99.90;;;;;;4936191;29;20498;-53
2023/04/05 04:42:11;;;;;;;9.00;5.27;;;1.20;99.90;;;;;;4934114;29;20478;-55
2023/04/05 04:45:01;;;;;;;6.63;4.77;;;1.50;99.90;;;;;;4934945;29;20461;-52
2023/04/05 04:47:53;;;;;;;6.77;4.60;;;1.20;99.90;;;;;;4917826;29;20480;-55
2023/04/05 04:50:36;;;;;;;7.87;4.63;;;1.30;99.90;;;;;;4916832;29;20988;-55
2023/04/05 04:53:04;;;;;;;7.97;5.17;;;1.60;99.90;;;;;;4928864;29;20501;-53
2023/04/05 04:55:35;;;;;;;9.47;4.77;;;1.60;99.90;;;;;;4935587;29;20475;-54
2023/04/05 04:58:08;;;;;;;6.40;5.17;;;1.60;99.90;;;;;;4935771;29;20533;-55
2023/04/05 05:00:38;;;;;;;7.33;4.40;;;1.50;99.90;;;;;;4924341;29;20832;-55
2023/04/05 05:03:10;;;;;;;7.47;4.73;;;1.60;99.90;;;;;;4933920;29;21081;-55
2023/04/05 05:05:42;;;;;;;10.03;4.90;;;1.60;99.90;;;;;;4935909;29;21049;-54
2023/04/05 05:08:11;;;;;;;6.87;4.73;;;1.60;99.90;;;;;;4935956;29;20829;-53
2023/04/05 05:10:41;;;;;;;7.87;4.90;;;1.60;99.90;;;;;;4931032;29;20956;-54
2023/04/05 05:13:11;;;;;;;9.13;5.17;;;1.70;99.90;;;;;;4916793;29;20483;-55
2023/04/05 05:15:40;;;;;;;7.37;5.00;;;1.80;99.90;;;;;;4923220;29;20479;-55
2023/04/05 05:18:09;;;;;;;7.00;4.63;;;1.90;99.90;;;;;;4930739;29;20470;-54
2023/04/05 05:20:37;;;;;;;6.10;4.60;;;1.60;99.90;;;;;;4921028;29;20493;-55
2023/04/05 05:23:06;;;;;;;7.30;5.03;;;1.50;99.90;;;;;;4916568;29;20475;-55
2023/04/05 05:25:34;;;;;;;7.27;4.83;;;1.60;99.90;;;;;;4918880;29;20462;-53
2023/04/05 05:28:02;;;;;;;6.73;4.60;;;1.60;99.90;;;;;;4926839;29;20862;-54
2023/04/05 05:30:32;;;;;;;7.57;4.70;;;1.60;99.90;;;;;;4927370;29;20507;-53
2023/04/05 05:33:01;;;;;;;8.27;4.80;;;1.50;99.90;;;;;;4921904;29;20481;-55
2023/04/05 05:35:29;;;;;;;6.17;4.47;;;1.50;99.90;;;;;;4922191;29;20842;-55
2023/04/05 05:37:57;;;;;;;6.57;4.30;;;1.60;99.90;;;;;;4935351;29;20474;-55
2023/04/05 05:40:25;;;;;;;8.60;5.30;;;1.80;99.90;;;;;;4935052;29;20493;-54
2023/04/05 05:42:53;;;;;;;6.13;4.67;;;1.90;99.90;;;;;;4935288;29;20558;-55
2023/04/05 05:45:21;;;;;;;6.40;4.47;;;1.80;99.90;;;;;;4934099;29;21005;-55
2023/04/05 05:47:51;;;;;;;6.87;4.67;;;2.20;99.90;;;;;;4935421;29;20478;-53
2023/04/05 05:50:20;;;;;;;5.90;5.00;;;2.40;99.90;;;;;;4925190;29;20478;-54
2023/04/05 05:52:48;;;;;;;7.87;5.47;;;2.40;99.90;;;;;;4925665;29;20474;-55
2023/04/05 05:55:16;;;;;;;8.67;5.70;;;2.40;99.90;;;;;;4928483;29;20577;-54
2023/04/05 05:57:44;;;;;;;9.87;5.40;;;2.40;99.90;;;;;;4927983;29;20467;-55
2023/04/05 06:00:14;;;;;;;14.30;8.03;;;2.70;99.90;;;;;;4924168;29;20491;-55
2023/04/05 06:02:42;;;;;;;21.47;10.93;;;2.80;99.90;;;;;;4926556;29;20499;-56
2023/04/05 06:05:12;;;;;;;20.47;11.20;;;2.90;99.90;;;;;;4924517;29;21006;-55
2023/04/05 06:07:40;;;;;;;17.50;9.93;;;3.00;99.90;;;;;;4924972;29;20818;-55
2023/04/05 06:10:09;;;;;;;20.00;10.77;;;3.20;99.90;;;;;;4926088;29;20480;-54
2023/04/05 06:12:37;;;;;;;17.07;9.97;;;3.40;99.90;;;;;;4930342;29;20506;-55
2023/04/05 06:15:09;;;;;;;13.93;8.57;;;3.10;99.90;;;;;;4933883;29;20490;-55
2023/04/05 06:17:41;;;;;;;17.53;9.93;;;3.50;99.90;;;;;;4934936;29;20480;-55
2023/04/05 06:20:10;;;;;;;17.37;9.27;;;3.40;99.90;;;;;;4935269;29;20498;-55
2023/04/05 06:22:40;;;;;;;12.90;7.53;;;3.20;99.90;;;;;;4935110;29;20477;-55
2023/04/05 06:25:11;;;;;;;11.73;7.77;;;3.50;99.90;;;;;;4936902;29;20965;-54
2023/04/05 06:27:39;;;;;;;14.47;9.00;;;3.80;99.90;;;;;;4938606;29;20553;-54
2023/04/05 06:30:08;;;;;;;11.30;7.83;;;3.80;99.90;;;;;;4931418;29;20474;-53
2023/04/05 06:32:36;;;;;;;15.23;9.47;;;4.10;99.90;;;;;;4926574;29;20482;-54
2023/04/05 06:35:05;;;;;;;14.43;8.57;;;4.10;99.90;;;;;;4936291;29;21053;-55
2023/04/05 06:37:33;;;;;;;13.37;8.80;;;4.10;99.90;;;;;;4929201;29;20874;-55
2023/04/05 06:40:03;;;;;;;13.50;8.50;;;4.30;99.90;;;;;;4928394;29;20499;-54
2023/04/05 06:42:31;;;;;;;12.30;8.07;;;4.60;99.90;;;;;;4927475;29;20476;-55
2023/04/05 06:45:04;;;;;;;16.30;8.70;;;4.80;99.90;;;;;;4935647;29;20472;-54
2023/04/05 06:47:34;;;;;;;12.40;7.50;;;4.90;99.90;;;;;;4931606;29;20472;-53
2023/04/05 06:50:03;;;;;;;10.70;6.67;;;5.10;99.90;;;;;;4924123;29;20464;-51
2023/04/05 06:52:33;;;;;;;8.93;6.90;;;5.30;99.90;;;;;;4919204;29;20502;-55
2023/04/05 06:55:03;;;;;;;8.83;6.73;;;5.50;99.90;;;;;;4918320;29;20232;-54
2023/04/05 06:57:31;;;;;;;9.90;6.20;;;5.70;99.90;;;;;;4928195;29;20487;-53
2023/04/05 07:00:00;;;;;;;8.43;6.33;;;6.00;99.90;;;;;;4931781;29;20580;-53
2023/04/05 07:02:28;;;;;;;11.07;6.27;;;6.20;99.90;;;;;;4924645;29;20787;-52
2023/04/05 07:05:02;;;;;;;9.60;6.40;;;6.30;99.90;;;;;;4937864;29;20331;-55
2023/04/05 07:07:30;;;;;;;8.77;6.20;;;6.40;99.90;;;;;;4937648;29;20231;-51
2023/04/05 07:09:58;;;;;;;10.97;6.50;;;6.60;99.90;;;;;;4938087;29;20587;-55
2023/04/05 07:12:28;;;;;;;11.87;5.83;;;6.90;99.90;;;;;;4937649;29;20216;-53
2023/04/05 07:14:56;;;;;;;10.10;6.37;;;7.20;99.90;;;;;;4937748;29;20774;-54
2023/04/05 07:17:24;;;;;;;10.53;6.20;;;7.30;99.90;;;;;;4936016;29;20235;-52
2023/04/05 07:19:52;;;;;;;8.93;5.27;;;7.60;99.90;;;;;;4937843;29;20643;-52
2023/04/05 07:22:20;;;;;;;7.80;4.93;;;7.90;99.90;;;;;;4937786;29;20648;-54
2023/04/05 07:24:48;;;;;;;7.13;4.40;;;8.00;99.90;;;;;;4928445;29;20731;-53
2023/04/05 07:27:17;;;;;;;6.33;3.63;;;8.10;99.90;;;;;;4937083;29;20236;-52
2023/04/05 07:29:47;;;;;;;5.10;3.43;;;8.20;99.90;;;;;;4933129;29;20800;-52
2023/04/05 07:32:15;;;;;;;5.73;3.23;;;8.50;99.90;;;;;;4922831;29;20235;-54
2023/04/05 07:34:43;;;;;;;7.77;3.37;;;8.90;99.90;;;;;;4936846;29;20708;-53
2023/04/05 07:37:11;;;;;;;4.13;2.87;;;9.00;99.90;;;;;;4935533;29;20224;-53
2023/04/05 07:39:39;;;;;;;4.20;3.00;;;9.10;99.90;;;;;;4937131;29;20231;-54
2023/04/05 07:42:07;;;;;;;5.67;2.67;;;9.30;99.90;;;;;;4937071;29;20232;-52
2023/04/05 07:44:35;;;;;;;4.47;2.80;;;9.50;99.90;;;;;;4937017;29;20238;-52
2023/04/05 07:47:05;;;;;;;5.60;2.60;;;9.60;99.90;;;;;;4936683;29;20248;-53
2023/04/05 07:49:33;;;;;;;7.03;3.00;;;9.80;99.90;;;;;;4918231;29;20238;-52
2023/04/05 07:52:01;;;;;;;3.13;2.30;;;9.90;99.90;;;;;;4921333;29;20244;-52
2023/04/05 07:54:32;;;;;;;2.47;2.00;;;10.00;99.90;;;;;;4934709;29;20234;-53
2023/04/05 07:57:01;;;;;;;4.43;2.30;;;10.10;99.90;;;;;;4918499;29;20698;-54
2023/04/05 07:59:29;;;;;;;3.50;2.47;;;10.30;99.90;;;;;;4925102;29;20320;-54
2023/04/05 08:01:58;;;;;;;5.70;2.43;;;10.40;99.90;;;;;;4920952;29;20241;-52
2023/04/05 08:04:40;;;;;;;5.63;2.57;;;10.50;99.90;;;;;;4936846;29;20252;-51
2023/04/05 08:07:09;;;;;;;3.80;2.37;;;10.60;99.90;;;;;;4937088;29;20721;-52
2023/04/05 08:09:37;;;;;;;3.47;2.37;;;10.80;99.90;;;;;;4936523;29;20235;-54
2023/04/05 08:12:05;;;;;;;4.13;2.50;;;11.00;99.90;;;;;;4936614;29;20232;-51
2023/04/05 08:14:33;;;;;;;3.23;2.87;;;11.30;99.90;;;;;;4936583;29;20238;-51
2023/04/05 08:17:01;;;;;;;4.90;2.40;;;11.40;99.90;;;;;;4936824;29;20229;-52
2023/04/05 08:19:29;;;;;;;3.90;2.60;;;11.60;99.90;;;;;;4936596;29;20241;-53
2023/04/05 08:21:59;;;;;;;3.67;2.00;;;11.60;99.90;;;;;;4936243;29;20235;-53
2023/04/05 08:24:27;;;;;;;4.70;2.60;;;11.60;99.90;;;;;;4929905;29;20695;-52
2023/04/05 08:26:55;;;;;;;4.37;2.30;;;11.90;99.90;;;;;;4935440;29;20282;-52
2023/04/05 08:29:23;;;;;;;5.70;2.37;;;12.00;99.90;;;;;;4932917;29;20243;-52
2023/04/05 08:31:51;;;;;;;3.60;2.43;;;12.40;99.90;;;;;;4925850;29;20711;-51
2023/04/05 08:34:19;;;;;;;4.93;2.53;;;12.80;99.90;;;;;;4936256;29;20239;-51
2023/04/05 08:36:48;;;;;;;4.23;2.23;;;13.10;99.90;;;;;;4935482;29;20249;-52
2023/04/05 08:39:17;;;;;;;3.70;2.43;;;13.10;99.90;;;;;;4934277;29;20706;-53
2023/04/05 08:41:51;;;;;;;6.40;2.30;;;13.20;99.90;;;;;;4934253;29;20696;-52
2023/04/05 08:44:22;;;;;;;5.33;2.70;;;13.20;99.90;;;;;;4936388;29;20302;-52
2023/04/05 08:46:51;;;;;;;4.17;2.97;;;12.90;99.90;;;;;;4927384;29;20235;-52
2023/04/05 08:49:19;;;;;;;5.87;2.93;;;12.30;99.90;;;;;;4934367;29;20255;-51
2023/04/05 08:51:48;;;;;;;4.97;2.83;;;12.20;99.90;;;;;;4930892;29;20569;-53
2023/04/05 08:54:18;;;;;;;3.83;2.50;;;12.40;99.90;;;;;;4935990;29;20243;-52
2023/04/05 08:56:47;;;;;;;4.07;2.67;;;12.30;99.90;;;;;;4926870;29;20631;-52
2023/04/05 08:59:18;;;;;;;3.87;2.87;;;12.60;99.90;;;;;;4930648;29;20238;-49
2023/04/05 09:01:47;;;;;;;3.20;2.77;;;13.10;99.90;;;;;;4929823;29;20699;-52
2023/04/05 09:04:20;;;;;;;5.80;4.10;;;13.70;99.90;;;;;;4924487;29;20278;-53
2023/04/05 09:06:50;;;;;;;6.07;3.70;;;13.20;99.90;;;;;;4933912;29;20224;-52
2023/04/05 09:09:21;;;;;;;5.63;3.93;;;12.80;99.90;;;;;;4931795;29;20224;-51
2023/04/05 09:11:49;;;;;;;6.43;4.00;;;12.40;99.90;;;;;;4934854;29;20227;-52
2023/04/05 09:14:19;;;;;;;5.27;3.87;;;11.80;99.90;;;;;;4934353;29;20269;-50
2023/04/05 09:16:47;;;;;;;4.77;3.33;;;11.50;99.90;;;;;;4934130;29;20694;-52
2023/04/05 09:19:15;;;;;;;5.40;3.53;;;11.40;99.90;;;;;;4918776;29;20255;-51
2023/04/05 09:21:59;;;;;;;5.37;3.53;;;12.00;99.90;;;;;;4934956;29;20703;-51
2023/04/05 09:24:39;;;;;;;5.07;3.27;;;12.50;99.90;;;;;;4916456;29;20596;-50
2023/04/05 09:27:09;;;;;;;6.83;3.77;;;12.60;99.90;;;;;;4916787;29;20364;-50
2023/04/05 09:29:39;;;;;;;4.57;2.93;;;12.80;99.90;;;;;;4925693;29;20599;-53
2023/04/05 09:32:09;;;;;;;3.90;2.77;;;13.30;99.90;;;;;;4919930;29;20722;-52
2023/04/05 09:34:38;;;;;;;4.57;2.80;;;13.80;99.90;;;;;;4934592;29;20232;-49
2023/04/05 09:37:14;;;;;;;4.30;3.20;;;14.10;99.90;;;;;;4933650;29;20236;-50
2023/04/05 09:39:44;;;;;;;4.77;3.03;;;13.90;99.90;;;;;;4934977;29;20224;-51
2023/04/05 09:42:15;;;;;;;3.13;2.70;;;14.20;99.90;;;;;;4934813;29;20319;-51
2023/04/05 09:44:53;;;;;;;3.43;2.90;;;14.40;99.90;;;;;;4933962;29;20703;-52
2023/04/05 09:47:23;;;;;;;4.20;3.07;;;14.50;99.90;;;;;;4934328;29;20730;-51
2023/04/05 09:49:56;;;;;;;4.93;3.40;;;14.70;99.90;;;;;;4932075;29;20326;-52
2023/04/05 09:52:25;;;;;;;3.73;2.87;;;14.20;95.30;;;;;;4935084;29;20241;-51
2023/04/05 09:54:56;;;;;;;4.60;2.80;;;13.00;98.30;;;;;;4935049;29;20228;-51
2023/04/05 09:57:26;;;;;;;4.83;3.07;;;13.70;99.90;;;;;;4933882;29;20235;-52
2023/04/05 09:59:54;;;;;;;4.83;3.17;;;14.20;98.70;;;;;;4935063;29;20282;-56
2023/04/05 10:02:23;;;;;;;4.30;2.60;;;14.50;99.20;;;;;;4937043;29;20615;-57
2023/04/05 10:04:52;;;;;;;5.43;3.13;;;14.90;99.20;;;;;;4938974;29;20231;-56
2023/04/05 10:07:20;;;;;;;3.50;3.17;;;15.60;99.10;;;;;;4938556;29;20306;-54
2023/04/05 10:09:48;;;;;;;5.70;3.30;;;15.90;95.60;;;;;;4938285;29;20232;-53
2023/04/05 10:12:26;;;;;;;5.63;3.30;;;15.40;94.60;;;;;;4938205;29;20220;-52
2023/04/05 10:14:55;;;;;;;5.00;2.30;;;14.10;91.40;;;;;;4938885;29;20232;-52
2023/04/05 10:17:28;;;;;;;3.20;2.67;;;13.60;92.60;;;;;;4938530;29;20692;-53
2023/04/05 10:20:08;;;;;;;3.97;2.87;;;14.10;93.30;;;;;;4938571;29;20320;-51
2023/04/05 10:22:48;;;;;;;3.23;2.80;;;15.10;98.10;;;;;;4938798;29;20236;-52
2023/04/05 10:25:25;;;;;;;3.63;2.67;;;15.80;94.30;;;;;;4938467;29;20651;-53
2023/04/05 10:28:02;;;;;;;4.10;3.20;;;15.00;96.20;;;;;;4938380;29;20220;-52
2023/04/05 10:30:36;;;;;;;5.57;2.67;;;15.00;91.70;;;;;;4930704;29;21748;-52
2023/04/05 10:33:13;;;;;;;3.77;3.00;;;15.40;96.10;;;;;;4930869;29;20235;-50
2023/04/05 10:35:52;;;;;;;3.80;2.90;;;15.80;92.30;;;;;;4937994;29;20568;-51
2023/04/05 10:38:24;;;;;;;5.47;2.60;;;16.10;94.30;;;;;;4919707;29;20730;-52
2023/04/05 10:40:54;;;;;;;3.03;2.50;;;16.90;94.40;;;;;;4919350;29;20251;-53
2023/04/05 10:43:25;;;;;;;2.93;2.63;;;17.30;93.50;;;;;;4924761;29;20703;-50
2023/04/05 10:45:54;;;;;;;4.23;3.07;;;17.60;90.20;;;;;;4936990;29;20725;-53
2023/04/05 10:48:34;;;;;;;4.53;3.30;;;17.00;83.50;;;;;;4928930;29;20488;-53
2023/04/05 10:51:03;;;;;;;6.30;3.43;;;15.30;81.50;;;;;;4937012;29;20679;-56
2023/04/05 10:53:32;;;;;;;5.30;3.30;;;14.30;86.70;;;;;;4936194;29;20436;-55
2023/04/05 10:56:01;;;;;;;3.40;2.90;;;14.60;91.10;;;;;;4930052;29;20688;-56
2023/04/05 10:58:32;;;;;;;4.03;2.97;;;14.90;93.00;;;;;;4921812;29;20280;-56
2023/04/05 11:01:02;;;;;;;4.50;2.77;;;15.10;90.60;;;;;;4923161;29;20566;-56
2023/04/05 11:03:48;;;;;;;4.63;2.97;;;14.80;90.50;;;;;;4933035;29;20298;-57
2023/04/05 11:06:24;;;;;;;3.33;2.70;;;14.40;91.30;;;;;;4935652;29;20242;-54
2023/04/05 11:08:58;;;;;;;4.73;3.20;;;14.40;93.40;;;;;;4937035;29;20250;-56
2023/04/05 11:11:27;;;;;;;4.53;2.63;;;14.50;94.00;;;;;;4937064;29;20247;-56
2023/04/05 11:13:58;;;;;;;3.50;2.70;;;14.60;94.50;;;;;;4937024;29;20684;-54
2023/04/05 11:16:40;;;;;;;3.40;2.67;;;14.80;93.80;;;;;;4937257;29;20703;-55
2023/04/05 11:19:09;;;;;;;3.97;2.60;;;14.90;94.20;;;;;;4936911;29;20232;-55
2023/04/05 11:21:38;;;;;;;3.90;2.60;;;14.90;93.60;;;;;;4937414;29;20235;-55
2023/04/05 11:24:08;;;;;;;4.00;3.30;;;15.30;93.50;;;;;;4937239;29;20707;-58
2023/04/05 11:26:56;;;;;;;3.00;2.63;;;15.50;91.60;;;;;;4936348;29;20247;-57
2023/04/05 11:29:48;;;;;;;4.23;2.97;;;15.00;91.10;;;;;;4936078;29;20239;-59
2023/04/05 11:32:17;;;;;;;6.73;3.00;;;14.70;93.30;;;;;;4926949;29;20228;-56
2023/04/05 11:34:57;;;;;;;5.37;2.67;;;15.10;92.80;;;;;;4937174;29;20235;-54
2023/04/05 11:37:53;;;;;;;3.10;2.67;;;16.00;92.60;;;;;;4936046;29;20246;-53
2023/04/05 11:40:26;;;;;;;4.53;2.40;;;17.30;90.00;;;;;;4936772;29;20228;-52
2023/04/05 11:43:02;;;;;;;3.40;3.10;;;17.00;91.90;;;;;;4936914;29;20236;-54
2023/04/05 11:45:33;;;;;;;4.33;2.67;;;16.60;85.20;;;;;;4936853;29;20233;-56
2023/04/05 11:48:04;;;;;;;4.50;3.10;;;15.30;86.70;;;;;;4936368;29;20258;-53
2023/04/05 11:50:33;;;;;;;4.47;2.43;;;13.70;84.00;;;;;;4936619;29;20699;-52
2023/04/05 11:53:11;;;;;;;4.87;2.90;;;12.50;90.60;;;;;;4935828;29;20228;-54
2023/04/05 11:55:40;;;;;;;3.90;2.80;;;11.70;91.50;;;;;;4936836;29;20739;-51
2023/04/05 11:58:14;;;;;;;4.20;2.80;;;11.30;95.30;;;;;;4937641;29;20240;-52
2023/04/05 12:00:44;;;;;;;4.60;2.50;;;11.50;93.30;;;;;;4929694;29;20600;-53
2023/04/05 12:03:13;;;;;;;3.83;2.43;;;11.40;95.40;;;;;;4934442;29;20246;-54
2023/04/05 12:05:49;;;;;;;3.93;2.20;;;11.50;95.70;;;;;;4935427;29;20243;-50
2023/04/05 12:08:17;;;;;;;3.93;2.60;;;11.70;96.80;;;;;;4936672;29;20243;-52
2023/04/05 12:10:54;;;;;;;3.13;2.60;;;11.60;94.10;;;;;;4936745;29;20319;-52
2023/04/05 12:13:29;;;;;;;2.97;2.17;;;11.80;96.20;;;;;;4936406;29;20618;-53
2023/04/05 12:16:00;;;;;;;3.80;2.30;;;11.80;95.50;;;;;;4936679;29;20227;-54
2023/04/05 12:18:30;;;;;;;4.40;2.40;;;12.00;97.00;;;;;;4936794;29;20699;-53
2023/04/05 12:20:59;;;;;;;3.07;2.10;;;12.30;97.10;;;;;;4936740;29;20246;-54
2023/04/05 12:23:27;;;;;;;3.30;2.60;;;12.50;96.70;;;;;;4935648;29;20721;-52
2023/04/05 12:25:57;;;;;;;3.13;2.43;;;12.80;99.30;;;;;;4936761;29;20235;-53
2023/04/05 12:28:25;;;;;;;3.97;3.00;;;13.20;98.40;;;;;;4936336;29;20235;-55
2023/04/05 12:30:56;;;;;;;3.03;2.50;;;13.40;94.00;;;;;;4922435;29;20243;-53
2023/04/05 12:33:29;;;;;;;3.37;2.30;;;13.50;95.00;;;;;;4934617;29;20687;-53
2023/04/05 12:35:57;;;;;;;4.60;3.30;;;13.50;94.70;;;;;;4924014;29;20234;-53
2023/04/05 12:38:26;;;;;;;5.00;3.40;;;13.20;95.50;;;;;;4935900;29;20318;-54
2023/04/05 12:40:59;;;;;;;3.67;3.03;;;12.80;95.00;;;;;;4925167;29;20241;-53
2023/04/05 12:43:37;;;;;;;3.83;3.03;;;12.40;96.20;;;;;;4918392;29;20251;-53
2023/04/05 12:46:09;;;;;;;4.43;2.90;;;12.30;96.50;;;;;;4926606;29;20640;-53
2023/04/05 12:48:38;;;;;;;3.80;2.83;;;12.30;96.60;;;;;;4935330;29;20242;-53
2023/04/05 12:51:15;;;;;;;4.20;3.10;;;12.10;96.70;;;;;;4935959;29;20243;-53
2023/04/05 12:53:47;;;;;;;3.83;2.83;;;12.10;96.40;;;;;;4934626;29;20235;-54
2023/04/05 12:56:16;;;;;;;4.10;2.93;;;12.20;97.40;;;;;;4936140;29;20235;-53
2023/04/05 12:58:48;;;;;;;4.83;3.47;;;12.40;97.30;;;;;;4934800;29;20247;-52
2023/04/05 13:01:16;;;;;;;4.50;2.97;;;12.20;96.60;;;;;;4920942;29;20695;-54
2023/04/05 13:03:47;;;;;;;4.00;2.60;;;12.20;96.80;;;;;;4933179;29;20252;-53
2023/04/05 13:06:17;;;;;;;4.00;2.90;;;12.20;96.70;;;;;;4936045;29;20243;-53
2023/04/05 13:08:45;;;;;;;4.17;3.17;;;12.00;96.70;;;;;;4925803;29;20239;-52
2023/04/05 13:11:13;;;;;;;4.13;3.40;;;11.90;98.50;;;;;;4917614;29;20239;-56
2023/04/05 13:13:41;;;;;;;5.27;3.53;;;11.90;98.50;;;;;;4909809;29;20232;-55